createdAt,value
2023-04-30T00:04:31.099Z,3.95
2023-04-30T00:09:32.536Z,3.63
2023-04-30T00:14:34.789Z,3.30
2023-04-30T00:19:36.347Z,3.47
2023-04-30T00:24:37.957Z,2.67
2023-04-30T00:29:39.566Z,3.42
2023-04-30T00:34:41.013Z,3.20
2023-04-30T00:39:42.438Z,3.28
2023-04-30T00:44:43.892Z,3.60
2023-04-30T00:49:45.560Z,2.95
2023-04-30T00:54:47.244Z,3.63
2023-04-30T00:59:49.165Z,3.50
2023-04-30T01:04:50.762Z,3.20
2023-04-30T01:09:52.510Z,4.43
2023-04-30T01:15:10.173Z,4.15
2023-04-30T01:20:12.763Z,4.38
2023-04-30T01:25:40.397Z,5.13
2023-04-30T01:30:42.500Z,4.47
2023-04-30T01:36:08.969Z,5.20
2023-04-30T01:41:15.010Z,4.82
2023-04-30T01:46:29.574Z,4.38
2023-04-30T01:51:42.958Z,4.30
2023-04-30T01:56:53.766Z,5.20
2023-04-30T02:01:56.268Z,4.22
2023-04-30T02:06:58.122Z,5.03
2023-04-30T02:11:59.536Z,4.82
2023-04-30T02:17:01.290Z,5.88
2023-04-30T02:22:02.723Z,4.32
2023-04-30T02:27:04.164Z,5.50
2023-04-30T02:32:05.919Z,5.35
2023-04-30T02:37:08.370Z,5.38
2023-04-30T02:42:10.065Z,5.75
2023-04-30T02:47:11.531Z,5.68
2023-04-30T02:52:12.974Z,4.80
2023-04-30T02:57:14.546Z,5.60
2023-04-30T03:02:15.988Z,5.63
2023-04-30T03:07:17.487Z,5.35
2023-04-30T03:12:18.964Z,5.93
2023-04-30T03:17:20.528Z,5.75
2023-04-30T03:22:21.985Z,5.97
2023-04-30T03:27:23.472Z,6.18
2023-04-30T03:32:24.916Z,5.80
2023-04-30T03:37:26.363Z,5.90
2023-04-30T03:42:27.756Z,6.13
2023-04-30T03:47:29.292Z,7.00
2023-04-30T03:52:30.736Z,5.78
2023-04-30T03:57:32.762Z,6.07
2023-04-30T04:02:34.494Z,5.25
2023-04-30T04:07:36.524Z,5.55
2023-04-30T04:12:38.469Z,5.47
2023-04-30T04:17:40.010Z,6.40
2023-04-30T04:22:41.658Z,5.55
2023-04-30T04:27:43.107Z,5.40
2023-04-30T04:32:44.711Z,5.82
2023-04-30T04:37:46.262Z,5.18
2023-04-30T04:42:50.206Z,5.15
2023-04-30T04:47:51.637Z,5.22
2023-04-30T04:52:53.318Z,5.30
2023-04-30T04:57:54.774Z,4.88
2023-04-30T05:02:56.259Z,5.32
2023-04-30T05:07:57.805Z,5.82
2023-04-30T05:12:59.222Z,5.45
2023-04-30T05:18:00.618Z,5.18
2023-04-30T05:23:02.100Z,5.18
2023-04-30T05:28:03.577Z,5.85
2023-04-30T05:33:05.091Z,5.88
2023-04-30T05:38:06.616Z,4.32
2023-04-30T05:43:08.062Z,7.30
2023-04-30T05:48:09.541Z,4.88
2023-04-30T05:53:11.074Z,4.38
2023-04-30T05:58:12.588Z,4.70
2023-04-30T06:03:14.093Z,5.25
2023-04-30T06:08:15.594Z,4.30
2023-04-30T06:13:17.103Z,3.95
2023-04-30T06:18:18.531Z,4.63
2023-04-30T06:23:19.958Z,3.65
2023-04-30T06:28:21.392Z,3.97
2023-04-30T06:33:22.777Z,3.38
2023-04-30T06:38:24.286Z,3.85
2023-04-30T06:43:26.859Z,3.83
2023-04-30T06:48:28.268Z,3.83
2023-04-30T06:53:29.692Z,3.15
2023-04-30T06:58:31.102Z,3.40
2023-04-30T07:03:35.108Z,2.92
2023-04-30T07:08:36.588Z,3.35
2023-04-30T07:13:38.410Z,3.58
2023-04-30T07:18:39.823Z,3.45
2023-04-30T07:23:41.319Z,2.78
2023-04-30T07:28:42.790Z,2.58
2023-04-30T07:33:45.084Z,2.92
2023-04-30T07:38:46.519Z,2.95
2023-04-30T07:43:47.980Z,2.95
2023-04-30T07:48:49.414Z,3.17
2023-04-30T07:53:50.864Z,2.88
2023-04-30T07:58:52.310Z,2.92
2023-04-30T08:03:53.826Z,3.00
2023-04-30T08:08:55.326Z,2.40
2023-04-30T08:13:56.771Z,2.65
2023-04-30T08:18:58.204Z,2.33
2023-04-30T08:23:59.653Z,2.83
2023-04-30T08:29:01.079Z,2.55
2023-04-30T08:34:02.625Z,2.20
2023-04-30T08:39:04.092Z,3.33
2023-04-30T08:44:08.217Z,2.75
2023-04-30T08:49:10.622Z,3.15
2023-04-30T08:54:13.504Z,2.47
2023-04-30T08:59:14.978Z,2.20
2023-04-30T09:04:16.857Z,2.70
2023-04-30T09:09:18.272Z,2.33
2023-04-30T09:14:25.063Z,2.67
2023-04-30T09:19:31.095Z,2.80
2023-04-30T09:24:46.548Z,2.70
2023-04-30T09:29:48.638Z,2.70
2023-04-30T09:34:50.089Z,3.03
2023-04-30T09:39:54.733Z,2.83
2023-04-30T09:44:57.838Z,2.83
2023-04-30T09:49:59.782Z,3.50
2023-04-30T09:55:01.363Z,2.92
2023-04-30T10:00:03.655Z,4.50
2023-04-30T10:05:11.011Z,2.78
2023-04-30T10:10:13.546Z,2.72
2023-04-30T10:15:17.250Z,3.40
2023-04-30T10:20:19.782Z,3.60
2023-04-30T10:25:21.569Z,3.10
2023-04-30T10:30:26.006Z,3.50
2023-04-30T10:35:31.532Z,3.20
2023-04-30T10:45:42.865Z,3.92
2023-04-30T10:50:46.268Z,2.90
2023-04-30T10:55:53.006Z,3.05
2023-04-30T11:01:06.827Z,2.78
2023-04-30T11:06:15.828Z,3.30
2023-04-30T11:11:20.839Z,3.58
2023-04-30T11:16:29.476Z,2.87
2023-04-30T11:21:32.230Z,2.92
2023-04-30T11:27:05.497Z,3.03
2023-04-30T11:32:07.276Z,3.00
2023-04-30T11:37:12.876Z,3.22
2023-04-30T11:42:21.053Z,3.00
2023-04-30T11:47:22.579Z,3.10
2023-04-30T11:52:25.614Z,3.10
2023-04-30T11:57:27.049Z,2.90
2023-04-30T12:02:28.638Z,3.75
2023-04-30T12:07:30.254Z,3.17
2023-04-30T12:12:32.148Z,4.05
2023-04-30T12:17:34.530Z,3.40
2023-04-30T12:22:36.526Z,3.78
2023-04-30T12:27:38.084Z,3.00
2023-04-30T12:32:44.580Z,3.88
2023-04-30T12:37:52.113Z,3.83
2023-04-30T12:43:01.362Z,3.38
2023-04-30T12:48:02.889Z,3.60
2023-04-30T12:53:05.568Z,3.25
2023-04-30T12:58:07.522Z,3.38
2023-04-30T13:03:09.090Z,3.47
2023-04-30T13:08:10.690Z,4.10
2023-04-30T13:13:14.019Z,3.50
2023-04-30T13:18:15.513Z,3.30
2023-04-30T13:23:17.007Z,3.20
2023-04-30T13:28:18.388Z,3.35
2023-04-30T13:33:19.814Z,3.65
2023-04-30T13:38:21.238Z,4.00
2023-04-30T13:43:22.702Z,3.45
2023-04-30T13:48:25.017Z,3.30
2023-04-30T13:53:26.817Z,2.88
2023-04-30T13:58:28.260Z,3.22
2023-04-30T14:03:29.820Z,3.38
2023-04-30T14:08:31.269Z,2.55
2023-04-30T14:13:32.682Z,2.50
2023-04-30T14:18:34.142Z,2.83
2023-04-30T14:23:35.599Z,3.20
2023-04-30T14:28:37.062Z,2.58
2023-04-30T14:33:38.734Z,2.70
2023-04-30T14:38:40.250Z,2.72
2023-04-30T14:43:41.921Z,2.88
2023-04-30T14:48:43.361Z,2.60
2023-04-30T14:53:44.872Z,3.08
2023-04-30T14:58:46.302Z,2.80
2023-04-30T15:03:47.932Z,3.20
2023-04-30T15:08:49.454Z,2.53
2023-04-30T15:13:50.966Z,2.67
2023-04-30T15:18:52.447Z,2.25
2023-04-30T15:23:53.898Z,3.30
2023-04-30T15:28:56.061Z,2.47
2023-04-30T15:33:57.526Z,3.28
2023-04-30T15:38:59.316Z,6.28
2023-04-30T15:44:00.793Z,2.45
2023-04-30T15:49:02.388Z,2.75
2023-04-30T15:54:04.128Z,2.40
2023-04-30T15:59:05.662Z,2.67
2023-04-30T16:04:07.475Z,2.83
2023-04-30T16:09:09.216Z,2.40
2023-04-30T16:14:10.649Z,2.53
2023-04-30T16:19:12.089Z,2.50
2023-04-30T16:24:13.627Z,2.28
2023-04-30T16:29:15.191Z,2.35
2023-04-30T16:34:16.765Z,2.75
2023-04-30T16:39:18.168Z,2.13
2023-04-30T16:44:19.617Z,2.30
2023-04-30T16:49:21.031Z,2.00
2023-04-30T16:54:22.475Z,2.17
2023-04-30T16:59:23.920Z,2.08
2023-04-30T17:04:25.354Z,2.42
2023-04-30T17:09:26.793Z,2.10
2023-04-30T17:14:28.591Z,1.92
2023-04-30T17:19:30.018Z,2.10
2023-04-30T17:24:31.472Z,2.45
2023-04-30T17:29:32.899Z,1.85
2023-04-30T17:34:34.322Z,2.28
2023-04-30T17:39:35.902Z,1.90
2023-04-30T17:44:37.342Z,2.63
2023-04-30T17:49:38.785Z,2.22
2023-04-30T17:54:40.229Z,2.70
2023-04-30T17:59:41.694Z,1.77
2023-04-30T18:04:43.111Z,2.10
2023-04-30T18:09:44.569Z,1.80
2023-04-30T18:14:46.030Z,2.63
2023-04-30T18:19:47.435Z,2.42
2023-04-30T18:24:48.853Z,2.25
2023-04-30T18:29:50.313Z,2.47
2023-04-30T18:34:51.757Z,3.20
2023-04-30T18:39:53.339Z,3.80
2023-04-30T18:44:54.897Z,3.03
2023-04-30T18:49:56.784Z,3.55
2023-04-30T18:54:58.442Z,3.55
2023-04-30T18:59:59.889Z,5.28
2023-04-30T19:05:01.450Z,10.20
2023-04-30T19:10:03.071Z,8.48
2023-04-30T19:15:05.129Z,5.57
2023-04-30T19:20:07.207Z,6.45
2023-04-30T19:25:09.146Z,4.78
2023-04-30T19:30:11.157Z,5.10
2023-04-30T19:35:12.687Z,6.53
2023-04-30T19:40:14.526Z,5.63
2023-04-30T19:45:16.102Z,7.53
2023-04-30T19:50:17.532Z,11.70
2023-04-30T19:55:19.162Z,14.68
2023-04-30T20:00:20.608Z,13.23
2023-04-30T20:05:22.044Z,10.07
2023-04-30T20:10:23.584Z,11.73
2023-04-30T20:15:25.106Z,10.38
2023-04-30T20:20:28.551Z,9.65
2023-04-30T20:25:29.992Z,10.90
2023-04-30T20:30:31.380Z,12.50
2023-04-30T20:35:32.784Z,13.80
2023-04-30T20:40:34.213Z,19.33
2023-04-30T20:45:36.018Z,21.17
2023-04-30T20:50:37.534Z,24.25
2023-04-30T20:55:38.980Z,18.10
2023-04-30T21:00:40.505Z,16.63
2023-04-30T21:05:41.986Z,14.88
2023-04-30T21:10:43.374Z,17.17
2023-04-30T21:15:44.767Z,16.85
2023-04-30T21:20:46.183Z,20.02
2023-04-30T21:25:47.570Z,20.13
2023-04-30T21:30:49.058Z,21.40
2023-04-30T21:35:50.505Z,22.17
2023-04-30T21:40:51.950Z,21.50
2023-04-30T21:45:53.380Z,21.70
2023-04-30T21:50:54.842Z,21.42
2023-04-30T21:55:56.241Z,21.88
2023-04-30T22:00:57.732Z,22.00
2023-04-30T22:05:59.649Z,21.42
2023-04-30T22:11:01.821Z,21.80
2023-04-30T22:16:03.461Z,20.73
2023-04-30T22:21:05.204Z,18.80
2023-04-30T22:26:06.636Z,19.67
2023-04-30T22:31:08.085Z,19.70
2023-04-30T22:36:09.554Z,19.42
2023-04-30T22:41:11.119Z,17.67
2023-04-30T22:46:13.255Z,18.65
2023-04-30T22:51:14.656Z,16.65
2023-04-30T22:56:16.113Z,18.05
2023-04-30T23:01:17.576Z,17.70
2023-04-30T23:06:19.070Z,19.33
2023-04-30T23:11:20.535Z,18.60
2023-04-30T23:16:22.038Z,17.27
2023-04-30T23:21:23.803Z,18.20
2023-04-30T23:26:25.348Z,17.20
2023-04-30T23:31:26.809Z,17.08
2023-04-30T23:36:28.290Z,17.10
2023-04-30T23:41:29.680Z,18.25
2023-04-30T23:46:31.118Z,21.33
2023-04-30T23:51:32.574Z,20.02
2023-04-30T23:56:33.989Z,23.08
